VTBS

Suvarnabhumi Airport

Bangkok, Thailand
TAF VTBS 230500Z 2306/2412 19008KT 9999 FEW020
Issued Valid From Valid To
Apr-23 @ 05:00 UTC
(4 hours ago)
Apr-23 @ 06:00 UTC
(3 hours ago)
Apr-24 @ 12:00 UTC
(-1 days ago)
Apr-23 @ 06:00 to Apr-24 @ 12:00
TAF VTBS 230500Z 2306/2412 19008KT 9999 FEW020
Wind Visibility Clouds
190° at 8 knots 10,000+ meters
  • Few at 2,000' AGL
TAF VTBS 230500Z 2306/2412 19008KT 9999 FEW020
Issued Apr-23 @ 05:00 UTC
(4 hours ago)
Valid From Apr-23 @ 06:00 UTC
(3 hours ago)
Valid To Apr-24 @ 12:00 UTC
(-1 days ago)
Apr-23 @ 06:00 - Apr-24 @ 12:00
Wind Visibility
190° at 8 knots 10,000+ meters
Clouds
  • Few at 2,000' AGL